sensor_id;sensor_type;location;lat;lon;timestamp;temperature;humidity
32147;DHT22;32190;49.112;8.598;2022-08-11T00:01:35;26.00;29.40
32147;DHT22;32190;49.112;8.598;2022-08-11T00:07:27;25.90;29.40
32147;DHT22;32190;49.112;8.598;2022-08-11T00:13:19;25.60;29.60
32147;DHT22;32190;49.112;8.598;2022-08-11T00:19:10;25.40;29.70
32147;DHT22;32190;49.112;8.598;2022-08-11T00:25:19;25.10;29.90
32147;DHT22;32190;49.112;8.598;2022-08-11T00:31:25;24.90;30.30
32147;DHT22;32190;49.112;8.598;2022-08-11T00:37:21;24.80;30.70
32147;DHT22;32190;49.112;8.598;2022-08-11T00:43:23;24.80;30.70
32147;DHT22;32190;49.112;8.598;2022-08-11T00:49:42;24.70;30.80
32147;DHT22;32190;49.112;8.598;2022-08-11T01:02:18;24.50;31.20
32147;DHT22;32190;49.112;8.598;2022-08-11T01:45:10;24.00;32.00
32147;DHT22;32190;49.112;8.598;2022-08-11T01:57:38;23.70;32.20
32147;DHT22;32190;49.112;8.598;2022-08-11T02:09:55;23.50;32.60
32147;DHT22;32190;49.112;8.598;2022-08-11T02:16:01;23.40;32.80
32147;DHT22;32190;49.112;8.598;2022-08-11T02:22:04;23.40;32.80
32147;DHT22;32190;49.112;8.598;2022-08-11T02:28:34;23.40;33.20
32147;DHT22;32190;49.112;8.598;2022-08-11T02:34:47;23.30;32.90
32147;DHT22;32190;49.112;8.598;2022-08-11T02:41:09;23.30;33.20
32147;DHT22;32190;49.112;8.598;2022-08-11T02:53:26;23.30;33.00
32147;DHT22;32190;49.112;8.598;2022-08-11T03:11:59;23.40;33.00
32147;DHT22;32190;49.112;8.598;2022-08-11T03:30:42;23.30;33.60
32147;DHT22;32190;49.112;8.598;2022-08-11T03:56:26;23.10;33.50
32147;DHT22;32190;49.112;8.598;2022-08-11T04:08:19;23.10;34.20
32147;DHT22;32190;49.112;8.598;2022-08-11T04:21:01;23.00;34.10
32147;DHT22;32190;49.112;8.598;2022-08-11T04:27:26;22.90;34.30
32147;DHT22;32190;49.112;8.598;2022-08-11T04:46:40;23.00;34.00
32147;DHT22;32190;49.112;8.598;2022-08-11T05:11:52;23.00;33.90
32147;DHT22;32190;49.112;8.598;2022-08-11T05:18:12;22.90;34.80
32147;DHT22;32190;49.112;8.598;2022-08-11T05:24:32;22.80;34.80
32147;DHT22;32190;49.112;8.598;2022-08-11T05:30:46;22.80;35.00
32147;DHT22;32190;49.112;8.598;2022-08-11T05:43:07;22.80;35.70
32147;DHT22;32190;49.112;8.598;2022-08-11T05:49:19;22.90;35.90
32147;DHT22;32190;49.112;8.598;2022-08-11T05:55:28;23.10;35.20
32147;DHT22;32190;49.112;8.598;2022-08-11T06:01:40;23.30;35.20
32147;DHT22;32190;49.112;8.598;2022-08-11T06:07:31;23.40;35.60
32147;DHT22;32190;49.112;8.598;2022-08-11T06:13:24;23.50;35.20
32147;DHT22;32190;49.112;8.598;2022-08-11T06:19:16;23.50;35.20
32147;DHT22;32190;49.112;8.598;2022-08-11T06:25:11;23.60;35.00
32147;DHT22;32190;49.112;8.598;2022-08-11T06:31:20;23.70;35.30
32147;DHT22;32190;49.112;8.598;2022-08-11T06:37:25;23.90;35.30
32147;DHT22;32190;49.112;8.598;2022-08-11T06:43:22;24.40;35.10
32147;DHT22;32190;49.112;8.598;2022-08-11T06:49:15;25.50;35.10
32147;DHT22;32190;49.112;8.598;2022-08-11T06:55:27;26.80;34.40
32147;DHT22;32190;49.112;8.598;2022-08-11T07:14:29;29.50;32.10
32147;DHT22;32190;49.112;8.598;2022-08-11T07:20:39;29.60;32.40
32147;DHT22;32190;49.112;8.598;2022-08-11T07:26:52;29.60;31.40
32147;DHT22;32190;49.112;8.598;2022-08-11T07:33:03;29.30;31.40
32147;DHT22;32190;49.112;8.598;2022-08-11T07:38:55;29.20;31.40
32147;DHT22;32190;49.112;8.598;2022-08-11T07:44:47;29.10;31.50
32147;DHT22;32190;49.112;8.598;2022-08-11T07:50:58;28.90;31.40
32147;DHT22;32190;49.112;8.598;2022-08-11T07:57:10;28.80;31.40
32147;DHT22;32190;49.112;8.598;2022-08-11T08:03:20;28.60;31.90
32147;DHT22;32190;49.112;8.598;2022-08-11T08:09:33;28.50;31.50
32147;DHT22;32190;49.112;8.598;2022-08-11T08:15:43;28.50;31.50
32147;DHT22;32190;49.112;8.598;2022-08-11T08:21:53;28.30;31.60
32147;DHT22;32190;49.112;8.598;2022-08-11T08:27:45;28.20;31.60
32147;DHT22;32190;49.112;8.598;2022-08-11T08:33:39;28.10;31.90
32147;DHT22;32190;49.112;8.598;2022-08-11T08:39:31;28.10;31.90
32147;DHT22;32190;49.112;8.598;2022-08-11T08:45:24;28.10;31.90
32147;DHT22;32190;49.112;8.598;2022-08-11T08:51:17;28.10;31.80
32147;DHT22;32190;49.112;8.598;2022-08-11T08:57:27;28.00;31.80
32147;DHT22;32190;49.112;8.598;2022-08-11T09:03:18;28.00;31.80
32147;DHT22;32190;49.112;8.598;2022-08-11T09:09:09;28.00;32.00
32147;DHT22;32190;49.112;8.598;2022-08-11T09:15:04;28.10;32.00
32147;DHT22;32190;49.112;8.598;2022-08-11T09:20:57;28.10;31.90
32147;DHT22;32190;49.112;8.598;2022-08-11T09:26:48;28.10;31.90
32147;DHT22;32190;49.112;8.598;2022-08-11T09:32:55;28.20;31.80
32147;DHT22;32190;49.112;8.598;2022-08-11T09:38:47;28.30;31.80
32147;DHT22;32190;49.112;8.598;2022-08-11T09:44:57;28.40;32.00
32147;DHT22;32190;49.112;8.598;2022-08-11T09:50:51;28.40;31.60
32147;DHT22;32190;49.112;8.598;2022-08-11T09:56:42;28.50;31.60
32147;DHT22;32190;49.112;8.598;2022-08-11T10:02:52;28.60;31.60
32147;DHT22;32190;49.112;8.598;2022-08-11T10:08:46;28.70;31.50
32147;DHT22;32190;49.112;8.598;2022-08-11T10:14:43;28.80;30.80
32147;DHT22;32190;49.112;8.598;2022-08-11T10:21:00;29.00;30.00
32147;DHT22;32190;49.112;8.598;2022-08-11T10:26:53;29.20;29.70
32147;DHT22;32190;49.112;8.598;2022-08-11T10:32:44;29.40;29.70
32147;DHT22;32190;49.112;8.598;2022-08-11T10:38:56;29.50;29.70
32147;DHT22;32190;49.112;8.598;2022-08-11T10:44:51;29.70;29.40
32147;DHT22;32190;49.112;8.598;2022-08-11T10:50:50;29.80;29.10
32147;DHT22;32190;49.112;8.598;2022-08-11T10:56:59;29.90;29.20
32147;DHT22;32190;49.112;8.598;2022-08-11T11:03:09;30.10;29.30
32147;DHT22;32190;49.112;8.598;2022-08-11T11:09:07;30.20;29.00
32147;DHT22;32190;49.112;8.598;2022-08-11T11:15:01;30.30;28.50
32147;DHT22;32190;49.112;8.598;2022-08-11T11:21:15;30.40;28.50
32147;DHT22;32190;49.112;8.598;2022-08-11T11:27:37;30.50;27.60
32147;DHT22;32190;49.112;8.598;2022-08-11T11:40:00;30.80;27.50
32147;DHT22;32190;49.112;8.598;2022-08-11T11:45:51;30.90;27.60
32147;DHT22;32190;49.112;8.598;2022-08-11T11:51:43;31.00;27.70
32147;DHT22;32190;49.112;8.598;2022-08-11T11:57:35;31.10;27.80
32147;DHT22;32190;49.112;8.598;2022-08-11T12:03:48;31.20;27.40
32147;DHT22;32190;49.112;8.598;2022-08-11T12:09:39;31.30;27.00
32147;DHT22;32190;49.112;8.598;2022-08-11T12:15:31;31.40;27.00
32147;DHT22;32190;49.112;8.598;2022-08-11T12:21:23;31.50;27.10
32147;DHT22;32190;49.112;8.598;2022-08-11T12:27:15;31.60;27.20
32147;DHT22;32190;49.112;8.598;2022-08-11T12:33:12;31.70;26.90
32147;DHT22;32190;49.112;8.598;2022-08-11T12:39:09;31.70;26.50
32147;DHT22;32190;49.112;8.598;2022-08-11T12:45:02;31.90;26.70
32147;DHT22;32190;49.112;8.598;2022-08-11T12:51:35;32.00;26.60
32147;DHT22;32190;49.112;8.598;2022-08-11T12:57:45;32.10;26.30
32147;DHT22;32190;49.112;8.598;2022-08-11T13:03:55;32.10;26.10
32147;DHT22;32190;49.112;8.598;2022-08-11T13:10:05;32.20;26.20
32147;DHT22;32190;49.112;8.598;2022-08-11T13:15:58;32.30;26.10
32147;DHT22;32190;49.112;8.598;2022-08-11T13:21:50;32.50;26.10
32147;DHT22;32190;49.112;8.598;2022-08-11T13:27:43;32.60;26.00
32147;DHT22;32190;49.112;8.598;2022-08-11T13:33:39;32.70;25.90
32147;DHT22;32190;49.112;8.598;2022-08-11T13:39:31;32.80;25.80
32147;DHT22;32190;49.112;8.598;2022-08-11T13:45:22;32.90;25.60
32147;DHT22;32190;49.112;8.598;2022-08-11T13:51:14;33.00;25.80
32147;DHT22;32190;49.112;8.598;2022-08-11T13:57:22;33.10;25.30
32147;DHT22;32190;49.112;8.598;2022-08-11T14:03:13;33.20;25.40
32147;DHT22;32190;49.112;8.598;2022-08-11T14:09:07;33.20;25.20
32147;DHT22;32190;49.112;8.598;2022-08-11T14:15:02;33.30;25.40
32147;DHT22;32190;49.112;8.598;2022-08-11T14:20:56;33.40;25.50
32147;DHT22;32190;49.112;8.598;2022-08-11T14:27:09;33.50;25.40
32147;DHT22;32190;49.112;8.598;2022-08-11T14:33:01;33.70;25.30
32147;DHT22;32190;49.112;8.598;2022-08-11T14:38:53;33.70;25.50
32147;DHT22;32190;49.112;8.598;2022-08-11T14:44:46;33.80;25.50
32147;DHT22;32190;49.112;8.598;2022-08-11T14:50:52;34.00;25.30
32147;DHT22;32190;49.112;8.598;2022-08-11T14:56:43;34.00;25.10
32147;DHT22;32190;49.112;8.598;2022-08-11T15:02:37;34.10;25.00
32147;DHT22;32190;49.112;8.598;2022-08-11T15:08:46;34.20;25.10
32147;DHT22;32190;49.112;8.598;2022-08-11T15:14:47;34.30;24.90
32147;DHT22;32190;49.112;8.598;2022-08-11T15:20:57;34.30;24.60
32147;DHT22;32190;49.112;8.598;2022-08-11T15:27:19;34.40;24.40
32147;DHT22;32190;49.112;8.598;2022-08-11T15:33:31;34.40;24.20
32147;DHT22;32190;49.112;8.598;2022-08-11T15:39:49;34.40;24.70
32147;DHT22;32190;49.112;8.598;2022-08-11T15:46:05;34.60;24.40
32147;DHT22;32190;49.112;8.598;2022-08-11T15:52:15;34.60;24.10
32147;DHT22;32190;49.112;8.598;2022-08-11T15:58:08;34.60;24.50
32147;DHT22;32190;49.112;8.598;2022-08-11T16:04:22;34.60;24.60
32147;DHT22;32190;49.112;8.598;2022-08-11T16:10:16;34.60;24.20
32147;DHT22;32190;49.112;8.598;2022-08-11T16:16:11;34.60;24.30
32147;DHT22;32190;49.112;8.598;2022-08-11T16:22:08;34.60;24.40
32147;DHT22;32190;49.112;8.598;2022-08-11T16:28:02;34.60;24.10
32147;DHT22;32190;49.112;8.598;2022-08-11T16:33:56;34.50;24.10
32147;DHT22;32190;49.112;8.598;2022-08-11T16:39:47;34.50;24.20
32147;DHT22;32190;49.112;8.598;2022-08-11T16:45:39;34.50;24.40
32147;DHT22;32190;49.112;8.598;2022-08-11T16:51:49;34.40;24.50
32147;DHT22;32190;49.112;8.598;2022-08-11T16:57:40;34.30;24.50
32147;DHT22;32190;49.112;8.598;2022-08-11T17:04:19;34.30;24.30
32147;DHT22;32190;49.112;8.598;2022-08-11T17:10:34;34.10;24.70
32147;DHT22;32190;49.112;8.598;2022-08-11T17:16:46;34.10;24.30
32147;DHT22;32190;49.112;8.598;2022-08-11T17:22:38;34.10;24.70
32147;DHT22;32190;49.112;8.598;2022-08-11T17:28:53;34.00;24.10
32147;DHT22;32190;49.112;8.598;2022-08-11T17:34:47;33.90;24.60
32147;DHT22;32190;49.112;8.598;2022-08-11T17:41:00;33.80;24.40
32147;DHT22;32190;49.112;8.598;2022-08-11T17:47:12;33.80;24.60
32147;DHT22;32190;49.112;8.598;2022-08-11T17:53:22;33.60;24.60
32147;DHT22;32190;49.112;8.598;2022-08-11T17:59:32;33.60;24.70
32147;DHT22;32190;49.112;8.598;2022-08-11T18:05:45;33.50;25.10
32147;DHT22;32190;49.112;8.598;2022-08-11T18:11:36;33.40;24.70
32147;DHT22;32190;49.112;8.598;2022-08-11T18:17:45;33.40;25.00
32147;DHT22;32190;49.112;8.598;2022-08-11T18:23:55;33.30;25.20
32147;DHT22;32190;49.112;8.598;2022-08-11T18:30:06;33.30;25.40
32147;DHT22;32190;49.112;8.598;2022-08-11T18:36:20;33.30;25.50
32147;DHT22;32190;49.112;8.598;2022-08-11T18:42:30;33.20;25.60
32147;DHT22;32190;49.112;8.598;2022-08-11T18:48:47;33.20;25.60
32147;DHT22;32190;49.112;8.598;2022-08-11T18:55:02;33.10;25.60
32147;DHT22;32190;49.112;8.598;2022-08-11T19:01:14;33.00;25.60
32147;DHT22;32190;49.112;8.598;2022-08-11T19:07:25;32.80;25.70
32147;DHT22;32190;49.112;8.598;2022-08-11T19:13:35;32.60;25.60
32147;DHT22;32190;49.112;8.598;2022-08-11T19:19:45;32.40;25.60
32147;DHT22;32190;49.112;8.598;2022-08-11T19:25:57;32.20;25.50
32147;DHT22;32190;49.112;8.598;2022-08-11T19:32:07;32.00;25.60
32147;DHT22;32190;49.112;8.598;2022-08-11T19:38:17;31.70;25.70
32147;DHT22;32190;49.112;8.598;2022-08-11T19:44:28;31.40;25.70
32147;DHT22;32190;49.112;8.598;2022-08-11T19:50:38;31.10;25.90
32147;DHT22;32190;49.112;8.598;2022-08-11T19:56:49;30.90;26.00
32147;DHT22;32190;49.112;8.598;2022-08-11T20:03:00;30.70;26.30
32147;DHT22;32190;49.112;8.598;2022-08-11T20:09:10;30.40;26.30
32147;DHT22;32190;49.112;8.598;2022-08-11T20:15:22;30.20;26.30
32147;DHT22;32190;49.112;8.598;2022-08-11T20:21:36;29.90;26.40
32147;DHT22;32190;49.112;8.598;2022-08-11T20:27:46;29.50;26.60
32147;DHT22;32190;49.112;8.598;2022-08-11T20:33:58;29.10;26.80
32147;DHT22;32190;49.112;8.598;2022-08-11T20:40:08;28.80;27.40
32147;DHT22;32190;49.112;8.598;2022-08-11T20:46:19;28.50;27.00
32147;DHT22;32190;49.112;8.598;2022-08-11T20:52:29;28.30;27.20
32147;DHT22;32190;49.112;8.598;2022-08-11T20:58:40;28.10;27.30
32147;DHT22;32190;49.112;8.598;2022-08-11T21:04:49;27.90;27.50
32147;DHT22;32190;49.112;8.598;2022-08-11T21:10:59;27.70;27.60
32147;DHT22;32190;49.112;8.598;2022-08-11T21:17:09;27.40;27.80
32147;DHT22;32190;49.112;8.598;2022-08-11T21:23:19;27.20;27.90
32147;DHT22;32190;49.112;8.598;2022-08-11T21:29:30;27.00;28.00
32147;DHT22;32190;49.112;8.598;2022-08-11T21:35:40;26.80;28.10
32147;DHT22;32190;49.112;8.598;2022-08-11T21:41:50;26.70;28.30
32147;DHT22;32190;49.112;8.598;2022-08-11T21:48:00;26.50;28.30
32147;DHT22;32190;49.112;8.598;2022-08-11T21:54:10;26.40;28.40
32147;DHT22;32190;49.112;8.598;2022-08-11T22:00:19;26.20;28.60
32147;DHT22;32190;49.112;8.598;2022-08-11T22:06:28;25.90;28.60
32147;DHT22;32190;49.112;8.598;2022-08-11T22:12:38;25.90;28.80
32147;DHT22;32190;49.112;8.598;2022-08-11T22:18:49;25.80;28.90
32147;DHT22;32190;49.112;8.598;2022-08-11T22:24:59;26.00;29.00
32147;DHT22;32190;49.112;8.598;2022-08-11T22:31:10;26.20;28.90
32147;DHT22;32190;49.112;8.598;2022-08-11T22:37:21;26.40;28.80
32147;DHT22;32190;49.112;8.598;2022-08-11T22:43:31;26.60;28.90
32147;DHT22;32190;49.112;8.598;2022-08-11T22:49:41;26.70;28.90
32147;DHT22;32190;49.112;8.598;2022-08-11T22:55:51;26.80;28.70
32147;DHT22;32190;49.112;8.598;2022-08-11T23:02:02;26.90;28.60
32147;DHT22;32190;49.112;8.598;2022-08-11T23:08:11;26.70;28.60
32147;DHT22;32190;49.112;8.598;2022-08-11T23:14:23;26.40;28.60
32147;DHT22;32190;49.112;8.598;2022-08-11T23:20:33;26.20;29.00
32147;DHT22;32190;49.112;8.598;2022-08-11T23:26:43;26.10;29.00
32147;DHT22;32190;49.112;8.598;2022-08-11T23:32:58;26.00;29.00
32147;DHT22;32190;49.112;8.598;2022-08-11T23:39:08;26.00;29.30
32147;DHT22;32190;49.112;8.598;2022-08-11T23:45:17;26.00;29.10
32147;DHT22;32190;49.112;8.598;2022-08-11T23:51:26;25.90;29.20
32147;DHT22;32190;49.112;8.598;2022-08-11T23:57:35;25.80;29.20
